sensor_id;sensor_type;location;lat;lon;timestamp;pressure;altitude;pressure_sealevel;temperature;humidity
4022;BME280;2025;48.260;16.432;2023-12-20T00:01:56;99763.34;;;-2.92;100.00
4022;BME280;2025;48.260;16.432;2023-12-20T00:04:23;99775.41;;;-3.09;100.00
4022;BME280;2025;48.260;16.432;2023-12-20T00:06:50;99782.56;;;-3.14;100.00
4022;BME280;2025;48.260;16.432;2023-12-20T00:09:17;99782.56;;;-3.14;100.00
4022;BME280;2025;48.260;16.432;2023-12-20T00:11:44;99778.94;;;-3.27;100.00
4022;BME280;2025;48.260;16.432;2023-12-20T00:14:11;99789.97;;;-3.41;100.00
4022;BME280;2025;48.260;16.432;2023-12-20T00:16:40;99792.03;;;-3.48;100.00
4022;BME280;2025;48.260;16.432;2023-12-20T00:19:07;99774.81;;;-3.30;100.00
4022;BME280;2025;48.260;16.432;2023-12-20T00:21:34;99769.41;;;-3.25;100.00
4022;BME280;2025;48.260;16.432;2023-12-20T00:24:00;99774.91;;;-3.15;100.00
4022;BME280;2025;48.260;16.432;2023-12-20T00:26:28;99776.06;;;-3.21;100.00
4022;BME280;2025;48.260;16.432;2023-12-20T00:28:55;99781.44;;;-3.42;100.00
4022;BME280;2025;48.260;16.432;2023-12-20T00:31:22;99772.31;;;-3.65;100.00
4022;BME280;2025;48.260;16.432;2023-12-20T00:33:50;99776.28;;;-3.59;100.00
4022;BME280;2025;48.260;16.432;2023-12-20T00:36:17;99779.41;;;-3.52;100.00
4022;BME280;2025;48.260;16.432;2023-12-20T00:38:45;99776.50;;;-3.46;100.00
4022;BME280;2025;48.260;16.432;2023-12-20T00:41:11;99759.78;;;-3.55;100.00
4022;BME280;2025;48.260;16.432;2023-12-20T00:43:38;99779.19;;;-3.32;100.00
4022;BME280;2025;48.260;16.432;2023-12-20T00:46:05;99787.97;;;-3.52;100.00
4022;BME280;2025;48.260;16.432;2023-12-20T00:48:37;99780.38;;;-3.55;100.00
4022;BME280;2025;48.260;16.432;2023-12-20T00:51:06;99784.13;;;-3.61;100.00
4022;BME280;2025;48.260;16.432;2023-12-20T00:53:33;99774.34;;;-3.71;100.00
4022;BME280;2025;48.260;16.432;2023-12-20T00:56:00;99773.41;;;-3.53;100.00
4022;BME280;2025;48.260;16.432;2023-12-20T00:58:27;99769.97;;;-3.36;100.00
4022;BME280;2025;48.260;16.432;2023-12-20T01:00:54;99775.09;;;-3.36;100.00
4022;BME280;2025;48.260;16.432;2023-12-20T01:03:21;99776.34;;;-3.43;100.00
4022;BME280;2025;48.260;16.432;2023-12-20T01:05:49;99788.63;;;-3.48;100.00
4022;BME280;2025;48.260;16.432;2023-12-20T01:08:17;99767.91;;;-3.29;100.00
4022;BME280;2025;48.260;16.432;2023-12-20T01:10:44;99769.31;;;-3.40;100.00
4022;BME280;2025;48.260;16.432;2023-12-20T01:13:12;99781.25;;;-3.39;100.00
4022;BME280;2025;48.260;16.432;2023-12-20T01:15:39;99776.44;;;-3.29;100.00
4022;BME280;2025;48.260;16.432;2023-12-20T01:18:06;99759.09;;;-3.25;100.00
4022;BME280;2025;48.260;16.432;2023-12-20T01:20:34;99749.00;;;-3.46;100.00
4022;BME280;2025;48.260;16.432;2023-12-20T01:23:01;99760.50;;;-3.35;100.00
4022;BME280;2025;48.260;16.432;2023-12-20T01:25:29;99746.72;;;-3.34;100.00
4022;BME280;2025;48.260;16.432;2023-12-20T01:27:56;99758.59;;;-3.32;100.00
4022;BME280;2025;48.260;16.432;2023-12-20T01:30:23;99750.31;;;-3.21;100.00
4022;BME280;2025;48.260;16.432;2023-12-20T01:32:51;99747.25;;;-3.12;100.00
4022;BME280;2025;48.260;16.432;2023-12-20T01:35:17;99733.75;;;-3.17;100.00
4022;BME280;2025;48.260;16.432;2023-12-20T01:37:44;99739.41;;;-3.26;100.00
4022;BME280;2025;48.260;16.432;2023-12-20T01:40:12;99733.09;;;-3.21;100.00
4022;BME280;2025;48.260;16.432;2023-12-20T01:42:41;99728.03;;;-3.06;100.00
4022;BME280;2025;48.260;16.432;2023-12-20T01:45:09;99722.88;;;-3.22;100.00
4022;BME280;2025;48.260;16.432;2023-12-20T01:47:36;99717.72;;;-3.06;100.00
4022;BME280;2025;48.260;16.432;2023-12-20T01:50:04;99717.66;;;-3.05;100.00
4022;BME280;2025;48.260;16.432;2023-12-20T01:52:34;99722.94;;;-3.08;100.00
4022;BME280;2025;48.260;16.432;2023-12-20T01:55:02;99728.28;;;-2.95;100.00
4022;BME280;2025;48.260;16.432;2023-12-20T01:57:32;99714.81;;;-3.00;100.00
4022;BME280;2025;48.260;16.432;2023-12-20T02:00:01;99705.66;;;-2.90;100.00
4022;BME280;2025;48.260;16.432;2023-12-20T02:02:29;99696.69;;;-2.99;100.00
4022;BME280;2025;48.260;16.432;2023-12-20T02:04:56;99690.31;;;-3.07;100.00
4022;BME280;2025;48.260;16.432;2023-12-20T02:07:23;99685.22;;;-3.09;100.00
4022;BME280;2025;48.260;16.432;2023-12-20T02:09:51;99681.66;;;-3.06;100.00
4022;BME280;2025;48.260;16.432;2023-12-20T02:12:19;99669.91;;;-2.96;100.00
4022;BME280;2025;48.260;16.432;2023-12-20T02:14:46;99654.56;;;-3.13;100.00
4022;BME280;2025;48.260;16.432;2023-12-20T02:17:14;99640.09;;;-3.16;100.00
4022;BME280;2025;48.260;16.432;2023-12-20T02:19:42;99642.63;;;-2.84;100.00
4022;BME280;2025;48.260;16.432;2023-12-20T02:22:11;99638.97;;;-2.96;100.00
4022;BME280;2025;48.260;16.432;2023-12-20T02:24:39;99641.03;;;-2.87;100.00
4022;BME280;2025;48.260;16.432;2023-12-20T02:27:07;99632.00;;;-2.94;100.00
4022;BME280;2025;48.260;16.432;2023-12-20T02:29:34;99638.59;;;-3.04;100.00
4022;BME280;2025;48.260;16.432;2023-12-20T02:32:02;99641.03;;;-2.87;100.00
4022;BME280;2025;48.260;16.432;2023-12-20T02:34:29;99632.66;;;-2.90;100.00
4022;BME280;2025;48.260;16.432;2023-12-20T02:36:56;99625.69;;;-2.88;100.00
4022;BME280;2025;48.260;16.432;2023-12-20T02:39:24;99613.88;;;-2.92;100.00
4022;BME280;2025;48.260;16.432;2023-12-20T02:41:51;99620.69;;;-2.91;100.00
4022;BME280;2025;48.260;16.432;2023-12-20T02:44:18;99614.88;;;-2.95;100.00
4022;BME280;2025;48.260;16.432;2023-12-20T02:46:45;99625.53;;;-3.01;100.00
4022;BME280;2025;48.260;16.432;2023-12-20T02:49:12;99626.59;;;-2.89;100.00
4022;BME280;2025;48.260;16.432;2023-12-20T02:51:39;99621.28;;;-2.86;100.00
4022;BME280;2025;48.260;16.432;2023-12-20T02:54:06;99616.72;;;-2.97;100.00
4022;BME280;2025;48.260;16.432;2023-12-20T02:56:35;99612.25;;;-3.09;100.00
4022;BME280;2025;48.260;16.432;2023-12-20T02:59:02;99613.31;;;-2.98;100.00
4022;BME280;2025;48.260;16.432;2023-12-20T03:01:31;99615.22;;;-3.01;100.00
4022;BME280;2025;48.260;16.432;2023-12-20T03:03:57;99610.91;;;-3.01;100.00
4022;BME280;2025;48.260;16.432;2023-12-20T03:06:24;99615.72;;;-2.94;100.00
4022;BME280;2025;48.260;16.432;2023-12-20T03:08:51;99614.72;;;-3.08;100.00
4022;BME280;2025;48.260;16.432;2023-12-20T03:11:18;99624.72;;;-3.02;100.00
4022;BME280;2025;48.260;16.432;2023-12-20T03:13:46;99622.94;;;-3.01;100.00
4022;BME280;2025;48.260;16.432;2023-12-20T03:16:13;99637.50;;;-3.00;100.00
4022;BME280;2025;48.260;16.432;2023-12-20T03:18:42;99631.34;;;-2.98;100.00
4022;BME280;2025;48.260;16.432;2023-12-20T03:21:08;99615.72;;;-3.10;100.00
4022;BME280;2025;48.260;16.432;2023-12-20T03:23:35;99612.78;;;-3.19;100.00
4022;BME280;2025;48.260;16.432;2023-12-20T03:26:03;99613.78;;;-3.21;100.00
4022;BME280;2025;48.260;16.432;2023-12-20T03:28:30;99617.19;;;-3.36;100.00
4022;BME280;2025;48.260;16.432;2023-12-20T03:30:58;99616.88;;;-3.46;100.00
4022;BME280;2025;48.260;16.432;2023-12-20T03:33:25;99605.41;;;-3.56;100.00
4022;BME280;2025;48.260;16.432;2023-12-20T03:35:52;99609.63;;;-3.55;100.00
4022;BME280;2025;48.260;16.432;2023-12-20T03:38:20;99605.16;;;-3.52;100.00
4022;BME280;2025;48.260;16.432;2023-12-20T03:40:47;99600.66;;;-3.64;100.00
4022;BME280;2025;48.260;16.432;2023-12-20T03:43:14;99607.25;;;-3.58;100.00
4022;BME280;2025;48.260;16.432;2023-12-20T03:45:41;99592.38;;;-3.53;100.00
4022;BME280;2025;48.260;16.432;2023-12-20T03:48:10;99594.25;;;-3.57;100.00
4022;BME280;2025;48.260;16.432;2023-12-20T03:50:37;99592.19;;;-3.66;100.00
4022;BME280;2025;48.260;16.432;2023-12-20T03:53:04;99594.34;;;-3.74;100.00
4022;BME280;2025;48.260;16.432;2023-12-20T03:55:31;99599.50;;;-3.74;100.00
4022;BME280;2025;48.260;16.432;2023-12-20T03:57:58;99596.84;;;-3.89;100.00
4022;BME280;2025;48.260;16.432;2023-12-20T04:00:25;99599.94;;;-3.82;100.00
4022;BME280;2025;48.260;16.432;2023-12-20T04:02:52;99597.34;;;-3.82;100.00
4022;BME280;2025;48.260;16.432;2023-12-20T04:05:20;99586.44;;;-3.87;100.00
4022;BME280;2025;48.260;16.432;2023-12-20T04:07:47;99598.50;;;-3.88;100.00
4022;BME280;2025;48.260;16.432;2023-12-20T04:10:16;99591.22;;;-3.79;100.00
4022;BME280;2025;48.260;16.432;2023-12-20T04:12:42;99590.97;;;-3.75;100.00
4022;BME280;2025;48.260;16.432;2023-12-20T04:15:09;99604.75;;;-3.60;100.00
4022;BME280;2025;48.260;16.432;2023-12-20T04:17:37;99597.00;;;-3.60;100.00
4022;BME280;2025;48.260;16.432;2023-12-20T04:20:05;99593.38;;;-3.56;100.00
4022;BME280;2025;48.260;16.432;2023-12-20T04:22:34;99598.50;;;-3.56;100.00
4022;BME280;2025;48.260;16.432;2023-12-20T04:25:01;99594.75;;;-3.50;100.00
4022;BME280;2025;48.260;16.432;2023-12-20T04:27:29;99598.25;;;-3.51;100.00
4022;BME280;2025;48.260;16.432;2023-12-20T04:29:55;99590.69;;;-3.54;100.00
4022;BME280;2025;48.260;16.432;2023-12-20T04:32:23;99589.63;;;-3.66;100.00
4022;BME280;2025;48.260;16.432;2023-12-20T04:34:50;99578.06;;;-3.43;100.00
4022;BME280;2025;48.260;16.432;2023-12-20T04:37:16;99596.69;;;-3.54;100.00
4022;BME280;2025;48.260;16.432;2023-12-20T04:39:45;99581.56;;;-3.28;100.00
4022;BME280;2025;48.260;16.432;2023-12-20T04:42:12;99582.56;;;-3.31;100.00
4022;BME280;2025;48.260;16.432;2023-12-20T04:44:39;99579.38;;;-3.20;100.00
4022;BME280;2025;48.260;16.432;2023-12-20T04:47:06;99588.16;;;-3.24;100.00
4022;BME280;2025;48.260;16.432;2023-12-20T04:49:33;99586.66;;;-3.12;100.00
4022;BME280;2025;48.260;16.432;2023-12-20T04:51:59;99580.44;;;-3.24;100.00
4022;BME280;2025;48.260;16.432;2023-12-20T04:54:26;99576.84;;;-3.06;100.00
4022;BME280;2025;48.260;16.432;2023-12-20T04:56:55;99583.38;;;-3.30;100.00
4022;BME280;2025;48.260;16.432;2023-12-20T04:59:22;99578.72;;;-3.24;100.00
4022;BME280;2025;48.260;16.432;2023-12-20T05:01:48;99582.09;;;-3.07;100.00
4022;BME280;2025;48.260;16.432;2023-12-20T05:04:15;99586.25;;;-3.21;100.00
4022;BME280;2025;48.260;16.432;2023-12-20T05:06:42;99575.22;;;-3.39;100.00
4022;BME280;2025;48.260;16.432;2023-12-20T05:09:09;99560.03;;;-3.43;100.00
4022;BME280;2025;48.260;16.432;2023-12-20T05:11:36;99562.34;;;-3.39;100.00
4022;BME280;2025;48.260;16.432;2023-12-20T05:14:04;99568.19;;;-3.35;100.00
4022;BME280;2025;48.260;16.432;2023-12-20T05:16:32;99568.81;;;-3.31;100.00
4022;BME280;2025;48.260;16.432;2023-12-20T05:19:00;99568.50;;;-3.25;100.00
4022;BME280;2025;48.260;16.432;2023-12-20T05:21:32;99571.63;;;-3.20;100.00
4022;BME280;2025;48.260;16.432;2023-12-20T05:23:59;99563.00;;;-3.19;100.00
4022;BME280;2025;48.260;16.432;2023-12-20T05:26:26;99553.81;;;-3.09;100.00
4022;BME280;2025;48.260;16.432;2023-12-20T05:28:55;99561.03;;;-3.00;100.00
4022;BME280;2025;48.260;16.432;2023-12-20T05:31:23;99559.06;;;-3.10;100.00
4022;BME280;2025;48.260;16.432;2023-12-20T05:33:50;99564.47;;;-3.15;100.00
4022;BME280;2025;48.260;16.432;2023-12-20T05:36:18;99578.41;;;-3.03;100.00
4022;BME280;2025;48.260;16.432;2023-12-20T05:38:45;99579.59;;;-3.09;100.00
4022;BME280;2025;48.260;16.432;2023-12-20T05:41:12;99587.44;;;-2.96;100.00
4022;BME280;2025;48.260;16.432;2023-12-20T05:43:40;99589.31;;;-2.98;100.00
4022;BME280;2025;48.260;16.432;2023-12-20T05:46:07;99592.59;;;-2.96;100.00
4022;BME280;2025;48.260;16.432;2023-12-20T05:48:38;99579.06;;;-3.00;100.00
4022;BME280;2025;48.260;16.432;2023-12-20T05:51:05;99571.84;;;-2.79;100.00
4022;BME280;2025;48.260;16.432;2023-12-20T05:53:31;99576.75;;;-2.74;100.00
4022;BME280;2025;48.260;16.432;2023-12-20T05:55:58;99577.69;;;-2.61;100.00
4022;BME280;2025;48.260;16.432;2023-12-20T05:58:26;99592.50;;;-2.64;100.00
4022;BME280;2025;48.260;16.432;2023-12-20T06:00:52;99593.44;;;-2.65;100.00
4022;BME280;2025;48.260;16.432;2023-12-20T06:03:19;99592.03;;;-2.57;100.00
4022;BME280;2025;48.260;16.432;2023-12-20T06:05:47;99606.97;;;-2.62;100.00
4022;BME280;2025;48.260;16.432;2023-12-20T06:08:14;99604.94;;;-2.57;100.00
4022;BME280;2025;48.260;16.432;2023-12-20T06:10:42;99590.88;;;-2.51;100.00
4022;BME280;2025;48.260;16.432;2023-12-20T06:13:08;99590.22;;;-2.55;100.00
4022;BME280;2025;48.260;16.432;2023-12-20T06:15:35;99590.59;;;-2.32;100.00
4022;BME280;2025;48.260;16.432;2023-12-20T06:18:02;99585.09;;;-2.26;100.00
4022;BME280;2025;48.260;16.432;2023-12-20T06:20:29;99590.53;;;-2.30;100.00
4022;BME280;2025;48.260;16.432;2023-12-20T06:22:57;99591.06;;;-2.25;100.00
4022;BME280;2025;48.260;16.432;2023-12-20T06:25:25;99604.31;;;-2.46;100.00
4022;BME280;2025;48.260;16.432;2023-12-20T06:27:52;99597.72;;;-2.21;100.00
4022;BME280;2025;48.260;16.432;2023-12-20T06:30:19;99580.47;;;-2.06;100.00
4022;BME280;2025;48.260;16.432;2023-12-20T06:32:46;99596.03;;;-2.08;100.00
4022;BME280;2025;48.260;16.432;2023-12-20T06:35:13;99596.75;;;-1.92;100.00
4022;BME280;2025;48.260;16.432;2023-12-20T06:37:40;99608.44;;;-1.57;100.00
4022;BME280;2025;48.260;16.432;2023-12-20T06:40:10;99614.84;;;-1.09;100.00
4022;BME280;2025;48.260;16.432;2023-12-20T06:42:37;99609.31;;;-0.90;100.00
4022;BME280;2025;48.260;16.432;2023-12-20T06:45:05;99601.00;;;1.30;100.00
4022;BME280;2025;48.260;16.432;2023-12-20T06:47:32;99598.97;;;2.02;100.00
4022;BME280;2025;48.260;16.432;2023-12-20T06:49:59;99593.50;;;2.94;100.00
4022;BME280;2025;48.260;16.432;2023-12-20T06:52:26;99600.41;;;3.89;95.63
4022;BME280;2025;48.260;16.432;2023-12-20T06:54:54;99590.53;;;5.02;88.05
4022;BME280;2025;48.260;16.432;2023-12-20T06:57:22;99564.66;;;5.28;85.51
4022;BME280;2025;48.260;16.432;2023-12-20T06:59:51;99570.31;;;5.24;85.44
4022;BME280;2025;48.260;16.432;2023-12-20T07:02:18;99560.06;;;5.60;83.42
4022;BME280;2025;48.260;16.432;2023-12-20T07:04:46;99560.53;;;5.36;84.70
4022;BME280;2025;48.260;16.432;2023-12-20T07:07:13;99571.69;;;5.28;85.06
4022;BME280;2025;48.260;16.432;2023-12-20T07:09:41;99557.00;;;5.27;85.39
4022;BME280;2025;48.260;16.432;2023-12-20T07:12:08;99567.53;;;5.35;84.19
4022;BME280;2025;48.260;16.432;2023-12-20T07:14:37;99559.19;;;5.32;83.89
4022;BME280;2025;48.260;16.432;2023-12-20T07:17:04;99556.31;;;5.25;84.78
4022;BME280;2025;48.260;16.432;2023-12-20T07:19:33;99585.41;;;5.87;79.26
4022;BME280;2025;48.260;16.432;2023-12-20T07:22:00;99590.28;;;6.19;78.30
4022;BME280;2025;48.260;16.432;2023-12-20T07:24:27;99616.97;;;6.50;76.50
4022;BME280;2025;48.260;16.432;2023-12-20T07:26:54;99603.03;;;6.32;79.16
4022;BME280;2025;48.260;16.432;2023-12-20T07:29:21;99608.72;;;6.18;80.36
4022;BME280;2025;48.260;16.432;2023-12-20T07:31:49;99610.31;;;5.91;82.44
4022;BME280;2025;48.260;16.432;2023-12-20T07:34:17;99614.28;;;6.05;82.20
4022;BME280;2025;48.260;16.432;2023-12-20T07:36:44;99631.84;;;5.65;87.00
4022;BME280;2025;48.260;16.432;2023-12-20T07:39:12;99623.47;;;5.62;86.44
4022;BME280;2025;48.260;16.432;2023-12-20T07:41:39;99632.31;;;5.32;89.89
4022;BME280;2025;48.260;16.432;2023-12-20T07:44:06;99621.94;;;5.59;86.24
4022;BME280;2025;48.260;16.432;2023-12-20T07:46:33;99611.25;;;5.23;90.16
4022;BME280;2025;48.260;16.432;2023-12-20T07:49:02;99609.31;;;5.45;85.64
4022;BME280;2025;48.260;16.432;2023-12-20T07:51:29;99616.03;;;5.47;85.53
4022;BME280;2025;48.260;16.432;2023-12-20T07:53:56;99628.16;;;5.48;85.94
4022;BME280;2025;48.260;16.432;2023-12-20T07:56:23;99630.38;;;5.43;87.54
4022;BME280;2025;48.260;16.432;2023-12-20T07:58:50;99628.72;;;5.23;90.15
4022;BME280;2025;48.260;16.432;2023-12-20T08:01:17;99627.34;;;4.99;92.80
4022;BME280;2025;48.260;16.432;2023-12-20T08:03:45;99638.44;;;4.92;93.67
4022;BME280;2025;48.260;16.432;2023-12-20T08:06:14;99622.53;;;5.24;91.16
4022;BME280;2025;48.260;16.432;2023-12-20T08:08:42;99627.63;;;5.16;91.87
4022;BME280;2025;48.260;16.432;2023-12-20T08:11:09;99627.75;;;5.24;91.35
4022;BME280;2025;48.260;16.432;2023-12-20T08:13:36;99623.19;;;5.55;89.13
4022;BME280;2025;48.260;16.432;2023-12-20T08:16:04;99629.06;;;5.77;86.80
4022;BME280;2025;48.260;16.432;2023-12-20T08:18:31;99622.44;;;5.82;86.25
4022;BME280;2025;48.260;16.432;2023-12-20T08:20:59;99618.53;;;6.16;82.78
4022;BME280;2025;48.260;16.432;2023-12-20T08:23:32;99613.50;;;6.32;81.34
4022;BME280;2025;48.260;16.432;2023-12-20T08:25:59;99628.63;;;6.56;79.69
4022;BME280;2025;48.260;16.432;2023-12-20T08:28:29;99631.13;;;6.58;79.16
4022;BME280;2025;48.260;16.432;2023-12-20T08:30:57;99627.44;;;6.50;79.82
4022;BME280;2025;48.260;16.432;2023-12-20T08:33:24;99632.00;;;6.48;79.24
4022;BME280;2025;48.260;16.432;2023-12-20T08:35:51;99632.63;;;6.60;77.16
4022;BME280;2025;48.260;16.432;2023-12-20T08:38:18;99644.28;;;6.66;76.63
4022;BME280;2025;48.260;16.432;2023-12-20T08:40:47;99647.69;;;6.76;75.15
4022;BME280;2025;48.260;16.432;2023-12-20T08:43:14;99655.59;;;6.84;73.73
4022;BME280;2025;48.260;16.432;2023-12-20T08:45:41;99660.97;;;6.83;73.55
4022;BME280;2025;48.260;16.432;2023-12-20T08:48:08;99653.50;;;6.70;75.08
4022;BME280;2025;48.260;16.432;2023-12-20T08:50:35;99648.19;;;6.80;73.34
4022;BME280;2025;48.260;16.432;2023-12-20T08:53:03;99656.59;;;6.83;72.49
4022;BME280;2025;48.260;16.432;2023-12-20T08:55:30;99663.66;;;6.73;73.05
4022;BME280;2025;48.260;16.432;2023-12-20T08:57:59;99666.78;;;6.59;75.01
4022;BME280;2025;48.260;16.432;2023-12-20T09:00:26;99679.59;;;6.52;74.92
4022;BME280;2025;48.260;16.432;2023-12-20T09:02:53;99679.41;;;6.36;76.22
4022;BME280;2025;48.260;16.432;2023-12-20T09:05:20;99670.38;;;6.20;78.26
4022;BME280;2025;48.260;16.432;2023-12-20T09:07:47;99680.25;;;6.26;77.07
4022;BME280;2025;48.260;16.432;2023-12-20T09:10:15;99680.31;;;6.17;78.27
4022;BME280;2025;48.260;16.432;2023-12-20T09:12:42;99669.88;;;6.07;79.21
4022;BME280;2025;48.260;16.432;2023-12-20T09:15:10;99682.25;;;6.05;79.64
4022;BME280;2025;48.260;16.432;2023-12-20T09:17:37;99691.09;;;5.94;80.53
4022;BME280;2025;48.260;16.432;2023-12-20T09:20:07;99682.00;;;5.88;81.18
4022;BME280;2025;48.260;16.432;2023-12-20T09:22:35;99687.78;;;5.82;82.41
4022;BME280;2025;48.260;16.432;2023-12-20T09:25:04;99691.50;;;5.80;82.79
4022;BME280;2025;48.260;16.432;2023-12-20T09:27:31;99700.59;;;5.56;86.44
4022;BME280;2025;48.260;16.432;2023-12-20T09:29:58;99702.66;;;5.33;89.17
4022;BME280;2025;48.260;16.432;2023-12-20T09:32:27;99710.75;;;5.20;90.97
4022;BME280;2025;48.260;16.432;2023-12-20T09:34:55;99711.69;;;5.10;91.86
4022;BME280;2025;48.260;16.432;2023-12-20T09:37:25;99710.31;;;5.05;92.51
4022;BME280;2025;48.260;16.432;2023-12-20T09:39:52;99716.31;;;4.86;95.40
4022;BME280;2025;48.260;16.432;2023-12-20T09:42:24;99690.91;;;4.89;94.75
4022;BME280;2025;48.260;16.432;2023-12-20T09:44:52;99700.56;;;4.98;92.11
4022;BME280;2025;48.260;16.432;2023-12-20T09:47:22;99710.16;;;4.88;94.49
4022;BME280;2025;48.260;16.432;2023-12-20T09:49:54;99700.53;;;4.88;93.32
4022;BME280;2025;48.260;16.432;2023-12-20T09:52:22;99699.16;;;4.84;93.88
4022;BME280;2025;48.260;16.432;2023-12-20T09:54:52;99692.72;;;4.88;92.58
4022;BME280;2025;48.260;16.432;2023-12-20T09:57:20;99683.34;;;4.76;93.92
4022;BME280;2025;48.260;16.432;2023-12-20T09:59:47;99675.59;;;4.55;97.37
4022;BME280;2025;48.260;16.432;2023-12-20T10:02:18;99672.88;;;4.66;95.08
4022;BME280;2025;48.260;16.432;2023-12-20T10:04:47;99667.38;;;4.59;96.02
4022;BME280;2025;48.260;16.432;2023-12-20T10:07:16;99668.59;;;4.55;96.47
4022;BME280;2025;48.260;16.432;2023-12-20T10:09:44;99661.16;;;4.51;97.77
4022;BME280;2025;48.260;16.432;2023-12-20T10:12:12;99649.66;;;4.63;95.13
4022;BME280;2025;48.260;16.432;2023-12-20T10:14:39;99655.97;;;4.60;95.35
4022;BME280;2025;48.260;16.432;2023-12-20T10:17:06;99652.16;;;4.64;94.60
4022;BME280;2025;48.260;16.432;2023-12-20T10:19:34;99654.06;;;4.72;93.36
4022;BME280;2025;48.260;16.432;2023-12-20T10:22:01;99649.69;;;4.82;91.55
4022;BME280;2025;48.260;16.432;2023-12-20T10:24:32;99633.38;;;4.80;91.95
4022;BME280;2025;48.260;16.432;2023-12-20T10:27:03;99640.78;;;4.85;90.51
4022;BME280;2025;48.260;16.432;2023-12-20T10:29:33;99636.81;;;4.91;89.83
4022;BME280;2025;48.260;16.432;2023-12-20T10:32:21;99628.56;;;4.85;90.67
4022;BME280;2025;48.260;16.432;2023-12-20T10:34:49;99630.06;;;4.88;90.10
4022;BME280;2025;48.260;16.432;2023-12-20T10:37:16;99616.22;;;4.97;88.45
4022;BME280;2025;48.260;16.432;2023-12-20T10:39:49;99634.75;;;4.94;88.54
4022;BME280;2025;48.260;16.432;2023-12-20T10:42:17;99638.44;;;4.92;88.77
4022;BME280;2025;48.260;16.432;2023-12-20T10:44:45;99627.75;;;4.95;88.07
4022;BME280;2025;48.260;16.432;2023-12-20T10:47:13;99626.66;;;4.88;88.75
4022;BME280;2025;48.260;16.432;2023-12-20T10:49:40;99615.53;;;4.95;87.59
4022;BME280;2025;48.260;16.432;2023-12-20T10:52:09;99622.13;;;4.90;88.83
4022;BME280;2025;48.260;16.432;2023-12-20T10:54:38;99621.72;;;4.94;87.75
4022;BME280;2025;48.260;16.432;2023-12-20T10:57:07;99621.03;;;4.92;88.28
4022;BME280;2025;48.260;16.432;2023-12-20T10:59:36;99614.28;;;4.90;88.46
4022;BME280;2025;48.260;16.432;2023-12-20T11:02:04;99600.97;;;5.02;86.58
4022;BME280;2025;48.260;16.432;2023-12-20T11:04:38;99597.13;;;5.06;86.11
4022;BME280;2025;48.260;16.432;2023-12-20T11:07:17;99593.81;;;5.04;86.54
4022;BME280;2025;48.260;16.432;2023-12-20T11:09:52;99593.28;;;5.11;85.64
4022;BME280;2025;48.260;16.432;2023-12-20T11:12:32;99593.28;;;5.11;86.18
4022;BME280;2025;48.260;16.432;2023-12-20T11:15:01;99600.53;;;5.17;85.42
4022;BME280;2025;48.260;16.432;2023-12-20T11:17:30;99582.53;;;5.23;84.37
4022;BME280;2025;48.260;16.432;2023-12-20T11:20:05;99590.53;;;5.32;83.82
4022;BME280;2025;48.260;16.432;2023-12-20T11:22:32;99569.63;;;5.32;83.96
4022;BME280;2025;48.260;16.432;2023-12-20T11:25:04;99577.31;;;5.33;83.75
4022;BME280;2025;48.260;16.432;2023-12-20T11:27:35;99580.31;;;5.38;83.07
4022;BME280;2025;48.260;16.432;2023-12-20T11:30:05;99573.72;;;5.44;82.32
4022;BME280;2025;48.260;16.432;2023-12-20T11:32:34;99554.06;;;5.40;82.96
4022;BME280;2025;48.260;16.432;2023-12-20T11:35:16;99550.50;;;5.41;83.40
4022;BME280;2025;48.260;16.432;2023-12-20T11:37:45;99549.78;;;5.48;82.12
4022;BME280;2025;48.260;16.432;2023-12-20T11:40:14;99557.22;;;5.43;83.81
4022;BME280;2025;48.260;16.432;2023-12-20T11:42:44;99551.72;;;5.46;82.88
4022;BME280;2025;48.260;16.432;2023-12-20T11:45:13;99550.91;;;5.46;83.67
4022;BME280;2025;48.260;16.432;2023-12-20T11:47:43;99548.25;;;5.56;82.48
4022;BME280;2025;48.260;16.432;2023-12-20T11:50:11;99553.19;;;5.59;82.42
4022;BME280;2025;48.260;16.432;2023-12-20T11:52:38;99545.59;;;5.65;81.45
4022;BME280;2025;48.260;16.432;2023-12-20T11:55:06;99559.66;;;5.64;81.99
4022;BME280;2025;48.260;16.432;2023-12-20T11:57:33;99543.56;;;5.69;81.85
4022;BME280;2025;48.260;16.432;2023-12-20T12:00:02;99543.25;;;5.72;81.75
4022;BME280;2025;48.260;16.432;2023-12-20T12:02:30;99545.44;;;5.77;81.33
4022;BME280;2025;48.260;16.432;2023-12-20T12:04:57;99547.31;;;5.84;80.80
4022;BME280;2025;48.260;16.432;2023-12-20T12:07:25;99542.91;;;5.85;80.64
4022;BME280;2025;48.260;16.432;2023-12-20T12:09:52;99549.25;;;5.92;80.47
4022;BME280;2025;48.260;16.432;2023-12-20T12:12:19;99543.16;;;5.91;81.00
4022;BME280;2025;48.260;16.432;2023-12-20T12:14:47;99550.88;;;5.93;80.71
4022;BME280;2025;48.260;16.432;2023-12-20T12:17:16;99556.53;;;5.98;80.43
4022;BME280;2025;48.260;16.432;2023-12-20T12:19:44;99552.53;;;6.04;79.88
4022;BME280;2025;48.260;16.432;2023-12-20T12:22:12;99551.69;;;6.03;80.58
4022;BME280;2025;48.260;16.432;2023-12-20T12:24:39;99545.06;;;6.09;79.29
4022;BME280;2025;48.260;16.432;2023-12-20T12:27:07;99543.41;;;6.08;80.59
4022;BME280;2025;48.260;16.432;2023-12-20T12:29:34;99543.66;;;6.15;79.04
4022;BME280;2025;48.260;16.432;2023-12-20T12:32:05;99540.06;;;6.16;79.07
4022;BME280;2025;48.260;16.432;2023-12-20T12:34:34;99538.66;;;6.21;79.78
4022;BME280;2025;48.260;16.432;2023-12-20T12:37:01;99543.44;;;6.26;80.29
4022;BME280;2025;48.260;16.432;2023-12-20T12:39:29;99537.66;;;6.22;78.74
4022;BME280;2025;48.260;16.432;2023-12-20T12:41:57;99529.19;;;6.20;78.62
4022;BME280;2025;48.260;16.432;2023-12-20T12:44:24;99535.06;;;6.22;78.61
4022;BME280;2025;48.260;16.432;2023-12-20T12:46:52;99528.63;;;6.17;78.69
4022;BME280;2025;48.260;16.432;2023-12-20T12:49:19;99529.22;;;6.10;79.58
4022;BME280;2025;48.260;16.432;2023-12-20T12:51:48;99535.56;;;6.08;79.40
4022;BME280;2025;48.260;16.432;2023-12-20T12:54:15;99518.75;;;6.10;78.92
4022;BME280;2025;48.260;16.432;2023-12-20T12:56:44;99530.88;;;6.11;78.81
4022;BME280;2025;48.260;16.432;2023-12-20T12:59:13;99533.78;;;6.08;79.45
4022;BME280;2025;48.260;16.432;2023-12-20T13:01:40;99537.59;;;6.14;79.01
4022;BME280;2025;48.260;16.432;2023-12-20T13:04:07;99530.25;;;6.18;78.30
4022;BME280;2025;48.260;16.432;2023-12-20T13:06:36;99531.25;;;6.17;78.28
4022;BME280;2025;48.260;16.432;2023-12-20T13:09:05;99533.19;;;6.15;78.78
4022;BME280;2025;48.260;16.432;2023-12-20T13:11:33;99528.78;;;6.15;78.50
4022;BME280;2025;48.260;16.432;2023-12-20T13:14:00;99523.94;;;6.20;77.42